Bookmark and Share
Track history (hours):
 

Eagle San Antonio

Last reported at 2014-Mar-30 21:32 UTC. Time now 2014-Apr-21 10:11 UTC.
Position S 34°28' E 017°52'.
Warning: this ship's position is 21 days out of date.

Length 274 m; draft 9.3 m.

Type: Tanker. MMSI: 566453000.

NotesDate/timePositionNaut miles runAvg speedWind from/ knotsBaromVisibWave heightAir tempDewpointWater temp
2014-Mar-30 21:32S 34°28' E 017°52'1010.5
2014-Mar-30 20:32S 34°36' E 017°59'1510.1
2014-Mar-30 19:06S 34°48' E 018°10'365 9.0
2014-Mar-29 02:33S 34°33' E 025°32'29412.6
2014-Mar-28 03:17S 31°34' E 030°10'1010.5
2014-Mar-28 02:21S 31°26' E 030°17'20 9.8
2014-Mar-28 00:17S 31°09' E 030°30'7 9.2
2014-Mar-27 23:32S 31°03' E 030°34'11 8.9
2014-Mar-27 22:19S 30°54' E 030°41'35 8.9
2014-Mar-27 18:24S 30°21' E 030°56'9 9.7
2014-Mar-27 17:32S 30°13' E 030°59'9 9.2
2014-Mar-27 16:33S 30°05' E 031°03'9 9.1
2014-Mar-27 15:33S 29°56' E 031°07'4 4.1
2014-Mar-27 14:33S 29°52' E 031°08'2 1.9
2014-Mar-27 13:33S 29°53' E 031°06'3 2.5
2014-Mar-27 12:33S 29°55' E 031°05'8 8.0
2014-Mar-27 11:33S 30°01' E 030°58'1 0.4
2014-Mar-27 10:05S 30°00' E 030°58'0 0.0
2014-Mar-27 08:23S 30°00' E 030°58'0 0.0
2014-Mar-27 07:05S 30°00' E 030°58'0 0.0
2014-Mar-27 03:11S 30°00' E 030°58'0 0.0
2014-Mar-27 02:29S 30°00' E 030°58'0 0.0
2014-Mar-27 00:29S 30°00' E 030°58'0 0.0
2014-Mar-26 08:11S 30°00' E 030°58'0 0.1
2014-Mar-26 07:33S 30°00' E 030°58'3 0.4
2014-Mar-26 00:33S 30°01' E 031°01'1 1.0
2014-Mar-25 23:33S 30°01' E 031°01'7 6.8
2014-Mar-25 22:33S 30°08' E 031°00'10 9.5
2014-Mar-25 21:32S 30°18' E 030°60'  
2014-Mar-21 16:05S 30°01' E 014°15'3312.3
2014-Mar-21 13:22S 29°31' E 013°57'2212.1
2014-Mar-21 11:30S 29°09' E 013°52'  

Dump ship's entire track history

sailing weather and tide predictions

Eagle San Antonio — 9V9330 — position and weather